Terminal Aerodrome Forecast
Issued by NWS

Home | Current Version | Previous Version | Graphics & Text | Print | Product List | Glossary On
Versions: 1 2 3 4 5 6 7 8 9 10 11 12 13 14 15 16 17 18 19 20 21 22 23 24 25 26 27 28 29 30
000
FTUS43 KLOT 202224 AAB
TAFDPA
TAF AMD
KDPA 202224Z 2022/2118 11005KT 3/4SM BR OVC003
      TEMPO 2022/2102 1/4SM FG OVC002
     FM210200 13006KT 3/4SM -DZ BR OVC003
     FM211400 16010KT 3SM BR OVC006=

USA.gov is the U.S. government's official web portal to all federal, state and local government web resources and services.